Accueil
METAR-TAF:

METAR-TAF

Aéroports :

Istanbul Atatürk, Turquie

Aéroport d'Istanbul-Atatürk

latitude: 40-58N, longitude: 028-49E, altitude: 48 m

Observation

Le bulletin a été fait il y a 23 minutes, à 22:20 UTC
Vent 4 kt de nord
Température 24°C
Humidité 65%
Pression 1012 hPa
Visibilité 10 km ou plus
pas de nuages en-dessous de 1500 mètres et pas de cumulonimbus.

METAR: LTBA 272220Z 35004KT CAVOK 24/17 Q1012 NOSIG RMK RWY17L 36003KT RWY05 VRB02KT RWY23 VRB03KT

Heure: 01:43 (22:43 UTC)

Prévision

Le bulletin a été fait il y a 6 heures et 3 minutes, à 16:40 UTC
Prévision valable du 27 à 18 UTC au 28 à 24 UTC
Vent 6 kt de nord/nord-est
Visibilité 10 km ou plus
pas de nuages en-dessous de 1500 mètres et pas de cumulonimbus.

TAF: LTBA 271640Z 2718/2824 03006KT CAVOK

Observations et prévisions météorologiques de plus de 4000 aéroports (messages METAR et TAF).

Les stations disponibles sont représentées par des disques jaunes et rouges sur la carte.

Passer la souris dessus pour voir le nom de la station.

Cliquer dessus pour voir les observations et prévisions météorologiques.

Pour changer de carte: cliquez sur les boutons verts avec une croix noire pour zoomer, sur le bouton vert avec un tiret pour effectuer un zoom arrière, ou sur les flèches vertes pour les cartes adjacentes.


METAR-TAF: